createdAt,value
2023-02-27T00:00:30.935Z,563.00
2023-02-27T00:01:30.995Z,567.00
2023-02-27T00:02:31.079Z,565.00
2023-02-27T00:03:31.147Z,566.00
2023-02-27T00:04:31.158Z,570.00
2023-02-27T00:05:31.238Z,562.00
2023-02-27T00:06:31.282Z,569.00
2023-02-27T00:07:31.341Z,567.00
2023-02-27T00:08:31.422Z,566.00
2023-02-27T00:09:31.515Z,567.00
2023-02-27T01:30:35.976Z,572.00
2023-02-27T01:31:36.060Z,569.00
2023-02-27T01:32:36.097Z,570.00
2023-02-27T01:33:36.117Z,568.00
2023-02-27T01:34:36.173Z,572.00
2023-02-27T01:35:36.221Z,569.00
2023-02-27T01:36:36.267Z,568.00
2023-02-27T01:37:36.329Z,567.00
2023-02-27T01:38:36.380Z,563.00
2023-02-27T01:39:36.432Z,574.00
2023-02-27T01:40:36.476Z,568.00
2023-02-27T01:41:36.537Z,574.00
2023-02-27T01:42:36.599Z,566.00
2023-02-27T01:43:36.631Z,570.00
2023-02-27T01:44:36.688Z,568.00
2023-02-27T01:45:36.785Z,570.00
2023-02-27T01:46:36.804Z,574.00
2023-02-27T01:47:36.847Z,569.00
2023-02-27T01:48:36.910Z,572.00
2023-02-27T01:49:36.964Z,570.00
2023-02-27T01:50:37.022Z,571.00
2023-02-27T01:51:37.075Z,566.00
2023-02-27T01:52:37.129Z,567.00
2023-02-27T01:53:37.321Z,566.00
2023-02-27T01:54:37.244Z,574.00
2023-02-27T01:55:37.302Z,571.00
2023-02-27T01:56:37.366Z,576.00
2023-02-27T01:57:37.497Z,579.00
2023-02-27T01:58:37.484Z,575.00
2023-02-27T01:59:37.617Z,571.00
2023-02-27T02:00:37.622Z,573.00
2023-02-27T02:01:37.718Z,570.00
2023-02-27T02:02:37.760Z,579.00
2023-02-27T02:03:37.772Z,570.00
2023-02-27T02:04:37.841Z,568.00
2023-02-27T02:05:37.967Z,574.00
2023-02-27T02:06:37.941Z,571.00
2023-02-27T02:07:38.003Z,567.00
2023-02-27T02:08:38.061Z,574.00
2023-02-27T02:09:38.109Z,574.00
2023-02-27T02:10:38.245Z,568.00
2023-02-27T02:11:38.957Z,571.00
2023-02-27T02:12:38.267Z,566.00
2023-02-27T02:13:38.324Z,565.00
2023-02-27T02:14:38.375Z,571.00
2023-02-27T02:15:38.437Z,569.00
2023-02-27T02:16:38.589Z,569.00
2023-02-27T02:17:38.534Z,569.00
2023-02-27T02:18:38.591Z,573.00
2023-02-27T02:19:38.649Z,567.00
2023-02-27T02:20:38.705Z,562.00
2023-02-27T02:21:38.768Z,565.00
2023-02-27T02:22:38.836Z,566.00
2023-02-27T02:23:38.954Z,564.00
2023-02-27T02:24:38.939Z,565.00
2023-02-27T02:25:38.998Z,567.00
2023-02-27T02:26:39.057Z,567.00
2023-02-27T02:27:39.166Z,571.00
2023-02-27T02:28:39.164Z,567.00
2023-02-27T02:29:39.225Z,575.00
2023-02-27T02:30:39.349Z,572.00
2023-02-27T02:31:39.486Z,567.00
2023-02-27T02:32:39.389Z,571.00
2023-02-27T02:33:39.436Z,565.00
2023-02-27T02:34:39.499Z,565.00
2023-02-27T02:35:39.559Z,567.00
2023-02-27T02:36:39.959Z,577.00
2023-02-27T02:37:39.671Z,570.00
2023-02-27T02:38:39.733Z,571.00
2023-02-27T02:39:39.792Z,572.00
2023-02-27T04:24:45.965Z,565.00
2023-02-27T04:25:46.073Z,570.00
2023-02-27T04:26:46.085Z,576.00
2023-02-27T04:27:46.121Z,572.00
2023-02-27T04:28:46.178Z,565.00
2023-02-27T04:29:46.244Z,566.00
2023-02-27T04:30:46.451Z,569.00
2023-02-27T04:31:46.549Z,571.00
2023-02-27T04:32:46.455Z,569.00
2023-02-27T04:33:46.442Z,572.00
2023-02-27T04:34:46.504Z,574.00
2023-02-27T04:35:46.548Z,574.00
2023-02-27T04:36:46.678Z,571.00
2023-02-27T04:37:46.662Z,566.00
2023-02-27T04:38:46.695Z,561.00
2023-02-27T04:39:46.754Z,566.00
2023-02-27T04:40:46.841Z,577.00
2023-02-27T04:41:46.860Z,573.00
2023-02-27T04:42:46.970Z,573.00
2023-02-27T04:43:46.963Z,566.00
2023-02-27T04:44:47.014Z,565.00
2023-02-27T04:45:47.156Z,572.00
2023-02-27T04:46:47.117Z,572.00
2023-02-27T04:47:47.254Z,572.00
2023-02-27T04:48:47.942Z,570.00
2023-02-27T04:49:47.366Z,571.00
2023-02-27T04:50:47.319Z,570.00
2023-02-27T04:51:47.369Z,572.00
2023-02-27T04:52:47.423Z,571.00
2023-02-27T04:53:47.490Z,574.00
2023-02-27T04:54:47.535Z,567.00
2023-02-27T04:55:47.586Z,571.00
2023-02-27T04:56:47.640Z,571.00
2023-02-27T04:57:47.722Z,573.00
2023-02-27T05:13:48.637Z,564.00
2023-02-27T05:14:48.687Z,575.00
2023-02-27T05:15:48.815Z,570.00
2023-02-27T05:16:48.846Z,564.00
2023-02-27T05:17:48.928Z,564.00
2023-02-27T05:18:48.953Z,560.00
2023-02-27T05:19:49.009Z,570.00
2023-02-27T05:20:49.070Z,563.00
2023-02-27T05:21:49.136Z,564.00
2023-02-27T05:22:49.219Z,566.00
2023-02-27T05:23:49.262Z,563.00
2023-02-27T05:24:49.317Z,572.00
2023-02-27T05:25:49.376Z,563.00
2023-02-27T05:26:49.440Z,562.00
2023-02-27T05:27:49.497Z,564.00
2023-02-27T05:28:49.540Z,564.00
2023-02-27T05:29:49.650Z,565.00
2023-02-27T05:30:49.671Z,570.00
2023-02-27T05:31:49.835Z,565.00
2023-02-27T05:32:49.853Z,563.00
2023-02-27T05:33:49.850Z,565.00
2023-02-27T05:34:49.904Z,570.00
2023-02-27T05:35:50.018Z,570.00
2023-02-27T05:36:50.020Z,560.00
2023-02-27T05:37:50.081Z,566.00
2023-02-27T05:38:50.211Z,571.00
2023-02-27T05:39:50.219Z,566.00
2023-02-27T05:40:50.273Z,570.00
2023-02-27T05:41:50.402Z,569.00
2023-02-27T05:42:50.400Z,566.00
2023-02-27T05:43:50.463Z,563.00
2023-02-27T05:44:50.496Z,568.00
2023-02-27T05:45:50.580Z,564.00
2023-02-27T05:46:50.700Z,567.00
2023-02-27T05:47:50.685Z,567.00
2023-02-27T05:48:50.738Z,570.00
2023-02-27T05:49:50.801Z,562.00
2023-02-27T05:50:50.851Z,559.00
2023-02-27T05:51:50.911Z,559.00
2023-02-27T05:52:50.972Z,559.00
2023-02-27T05:53:51.920Z,569.00
2023-02-27T05:54:51.084Z,561.00
2023-02-27T05:55:51.146Z,570.00
2023-02-27T05:56:51.215Z,557.00
2023-02-27T05:57:51.296Z,563.00
2023-02-27T05:58:51.343Z,561.00
2023-02-27T05:59:51.404Z,564.00
2023-02-27T06:00:52.437Z,555.00
2023-02-27T06:01:51.531Z,567.00
2023-02-27T06:02:51.596Z,565.00
2023-02-27T06:03:51.659Z,556.00
2023-02-27T06:04:51.732Z,554.00
2023-02-27T06:05:51.804Z,552.00
2023-02-27T06:06:51.863Z,551.00
2023-02-27T06:07:51.929Z,556.00
2023-02-27T06:08:51.986Z,563.00
2023-02-27T06:09:52.143Z,552.00
2023-02-27T06:10:52.108Z,567.00
2023-02-27T06:11:52.178Z,559.00
2023-02-27T06:12:52.236Z,561.00
2023-02-27T06:13:52.292Z,562.00
2023-02-27T06:14:52.356Z,560.00
2023-02-27T06:15:52.407Z,567.00
2023-02-27T06:16:52.502Z,578.00
2023-02-27T06:17:52.534Z,580.00
2023-02-27T06:18:52.582Z,591.00
2023-02-27T06:19:52.644Z,620.00
2023-02-27T06:20:52.699Z,618.00
2023-02-27T06:21:52.764Z,625.00
2023-02-27T06:22:52.812Z,621.00
2023-02-27T06:23:52.863Z,626.00
2023-02-27T06:24:52.928Z,624.00
2023-02-27T06:25:53.043Z,627.00
2023-02-27T06:26:53.028Z,637.00
2023-02-27T06:27:53.097Z,641.00
2023-02-27T06:28:53.154Z,650.00
2023-02-27T06:29:53.196Z,656.00
2023-02-27T06:30:53.957Z,656.00
2023-02-27T06:31:53.290Z,676.00
2023-02-27T06:32:53.330Z,671.00
2023-02-27T06:33:53.394Z,690.00
2023-02-27T06:34:53.485Z,665.00
2023-02-27T06:35:53.517Z,658.00
2023-02-27T06:36:53.487Z,660.00
2023-02-27T06:37:53.533Z,661.00
2023-02-27T06:38:53.574Z,659.00
2023-02-27T06:39:53.630Z,648.00
2023-02-27T06:40:54.658Z,647.00
2023-02-27T06:41:53.814Z,646.00
2023-02-27T06:42:53.649Z,643.00
2023-02-27T06:43:53.676Z,640.00
2023-02-27T06:44:53.678Z,633.00
2023-02-27T06:45:53.704Z,640.00
2023-02-27T06:46:53.701Z,643.00
2023-02-27T06:47:53.752Z,642.00
2023-02-27T06:48:53.723Z,644.00
2023-02-27T06:49:53.725Z,634.00
2023-02-27T06:50:53.762Z,641.00
2023-02-27T06:51:53.735Z,642.00
2023-02-27T06:52:53.751Z,643.00
2023-02-27T06:53:53.777Z,643.00
2023-02-27T06:54:53.763Z,651.00
2023-02-27T06:55:53.808Z,652.00
2023-02-27T06:56:53.854Z,652.00
2023-02-27T06:57:53.922Z,660.00
2023-02-27T06:58:53.969Z,665.00
2023-02-27T06:59:54.017Z,665.00
2023-02-27T07:00:54.075Z,665.00
2023-02-27T07:01:54.109Z,672.00
2023-02-27T07:02:54.161Z,682.00
2023-02-27T07:07:54.429Z,711.00
2023-02-27T08:03:55.957Z,639.00
2023-02-27T08:04:56.046Z,645.00
2023-02-27T08:07:56.036Z,644.00
2023-02-27T08:09:56.149Z,650.00
2023-02-27T08:10:56.110Z,655.00
2023-02-27T08:11:56.112Z,655.00
2023-02-27T08:12:56.148Z,666.00
2023-02-27T08:14:00.632Z,660.00
2023-02-27T08:15:56.266Z,660.00
2023-02-27T08:16:56.270Z,661.00
2023-02-27T08:17:56.242Z,672.00
2023-02-27T08:18:56.278Z,681.00
2023-02-27T08:19:56.276Z,677.00
2023-02-27T08:20:56.307Z,659.00
2023-02-27T08:21:56.348Z,657.00
2023-02-27T08:22:56.383Z,660.00
2023-02-27T08:34:56.721Z,771.00
2023-02-27T08:35:56.751Z,770.00
2023-02-27T08:53:57.149Z,970.00
2023-02-27T08:54:57.186Z,984.00
2023-02-27T08:55:57.239Z,1001.00
2023-02-27T08:56:57.268Z,1016.00
2023-02-27T08:57:57.320Z,1026.00
2023-02-27T08:58:57.366Z,1020.00
2023-02-27T08:59:57.466Z,1034.00
2023-02-27T09:00:57.508Z,1059.00
2023-02-27T09:01:57.489Z,1057.00
2023-02-27T09:02:57.646Z,1061.00
2023-02-27T09:03:57.665Z,1050.00
2023-02-27T09:04:57.649Z,1062.00
2023-02-27T09:05:57.690Z,1074.00
2023-02-27T09:06:57.795Z,1072.00
2023-02-27T09:07:57.781Z,1066.00
2023-02-27T09:09:57.893Z,1071.00
2023-02-27T09:10:58.080Z,1049.00
2023-02-27T09:11:58.898Z,1014.00
2023-02-27T09:12:58.049Z,1002.00
2023-02-27T09:13:58.110Z,962.00
2023-02-27T09:14:58.167Z,957.00
2023-02-27T09:15:58.230Z,928.00
2023-02-27T09:16:58.364Z,911.00
2023-02-27T09:17:58.337Z,883.00
2023-02-27T09:18:58.401Z,667.00
2023-02-27T09:19:58.416Z,586.00
2023-02-27T09:20:58.414Z,524.00
2023-02-27T09:21:58.426Z,526.00
2023-02-27T09:22:58.440Z,490.00
2023-02-27T09:24:02.569Z,602.00
2023-02-27T09:24:59.458Z,668.00
2023-02-27T09:25:58.482Z,695.00
2023-02-27T09:37:58.647Z,970.00
2023-02-27T09:38:58.633Z,971.00
2023-02-27T09:39:58.661Z,977.00
2023-02-27T09:40:58.682Z,1022.00
2023-02-27T09:41:59.390Z,1048.00
2023-02-27T09:42:58.799Z,1032.00
2023-02-27T09:44:58.847Z,1041.00
2023-02-27T09:45:58.906Z,1023.00
2023-02-27T09:46:58.929Z,1026.00
2023-02-27T09:47:59.074Z,1030.00
2023-02-27T09:48:59.888Z,1042.00
2023-02-27T09:49:59.090Z,1037.00
2023-02-27T09:50:59.126Z,1033.00
2023-02-27T09:51:59.214Z,1050.00
2023-02-27T09:52:59.201Z,1045.00
2023-02-27T09:53:59.228Z,1065.00
2023-02-27T09:54:59.294Z,1058.00
2023-02-27T09:55:59.399Z,1075.00
2023-02-27T09:56:59.361Z,1064.00
2023-02-27T09:57:59.397Z,1070.00
2023-02-27T09:58:59.526Z,1068.00
2023-02-27T09:59:59.481Z,1070.00
2023-02-27T10:00:59.589Z,1075.00
2023-02-27T10:01:59.692Z,1071.00
2023-02-27T10:02:59.647Z,1077.00
2023-02-27T10:03:59.713Z,1078.00
2023-02-27T10:04:59.698Z,1088.00
2023-02-27T10:05:59.759Z,1088.00
2023-02-27T10:06:59.797Z,1079.00
2023-02-27T10:07:59.840Z,1084.00
2023-02-27T10:08:59.886Z,1076.00
2023-02-27T10:09:59.937Z,1096.00
2023-02-27T10:11:00.000Z,1097.00
2023-02-27T10:12:00.042Z,1095.00
2023-02-27T10:13:01.051Z,1095.00
2023-02-27T10:14:00.073Z,1095.00
2023-02-27T10:16:00.100Z,1097.00
2023-02-27T10:17:00.157Z,1077.00
2023-02-27T10:18:00.135Z,1069.00
2023-02-27T10:19:00.148Z,1044.00
2023-02-27T10:20:00.190Z,1019.00
2023-02-27T10:22:00.161Z,1027.00
2023-02-27T10:23:00.171Z,1030.00
2023-02-27T10:30:00.831Z,565.00
2023-02-27T10:31:00.293Z,578.00
2023-02-27T10:32:00.297Z,613.00
2023-02-27T10:34:00.271Z,839.00
2023-02-27T10:35:00.301Z,888.00
2023-02-27T10:36:02.131Z,911.00
2023-02-27T10:37:00.289Z,957.00
2023-02-27T10:38:01.304Z,958.00
2023-02-27T10:39:00.302Z,958.00
2023-02-27T11:33:01.750Z,777.00
2023-02-27T11:34:01.789Z,801.00
2023-02-27T11:35:01.882Z,793.00
2023-02-27T11:36:01.996Z,793.00
2023-02-27T11:37:01.899Z,799.00
2023-02-27T11:38:01.970Z,814.00
2023-02-27T11:39:02.004Z,807.00
2023-02-27T11:40:02.018Z,818.00
2023-02-27T11:41:02.053Z,825.00
2023-02-27T11:42:02.155Z,830.00
2023-02-27T11:43:02.393Z,841.00
2023-02-27T11:44:02.179Z,849.00
2023-02-27T11:45:02.218Z,849.00
2023-02-27T11:48:02.334Z,870.00
2023-02-27T11:49:02.379Z,871.00
2023-02-27T11:50:02.397Z,881.00
2023-02-27T11:51:02.475Z,878.00
2023-02-27T11:52:02.490Z,908.00
2023-02-27T11:53:02.527Z,902.00
2023-02-27T11:54:02.583Z,919.00
2023-02-27T11:55:02.688Z,933.00
2023-02-27T11:56:02.665Z,925.00
2023-02-27T11:57:02.704Z,953.00
2023-02-27T11:58:02.743Z,950.00
2023-02-27T11:59:02.780Z,950.00
2023-02-27T12:00:02.885Z,959.00
2023-02-27T12:01:02.862Z,980.00
2023-02-27T12:02:02.907Z,990.00
2023-02-27T12:03:03.072Z,985.00
2023-02-27T12:04:03.108Z,1004.00
2023-02-27T12:05:03.042Z,1020.00
2023-02-27T12:06:03.081Z,1028.00
2023-02-27T12:07:03.116Z,1039.00
2023-02-27T12:08:03.152Z,1049.00
2023-02-27T12:09:03.195Z,1058.00
2023-02-27T12:10:03.236Z,1077.00
2023-02-27T13:24:05.930Z,1331.00
2023-02-27T13:25:05.973Z,1331.00
2023-02-27T13:26:06.016Z,1318.00
2023-02-27T13:28:06.102Z,1309.00
2023-02-27T13:30:06.197Z,1315.00
2023-02-27T13:31:06.269Z,1323.00
2023-02-27T13:32:06.402Z,1306.00
2023-02-27T13:33:06.484Z,1306.00
2023-02-27T13:34:06.403Z,1306.00
2023-02-27T13:35:06.446Z,1301.00
2023-02-27T13:36:06.541Z,1294.00
2023-02-27T13:37:06.579Z,1299.00
2023-02-27T13:38:06.593Z,1300.00
2023-02-27T13:39:06.637Z,1284.00
2023-02-27T13:40:06.677Z,1297.00
2023-02-27T13:41:06.731Z,1290.00
2023-02-27T13:42:06.780Z,1280.00
2023-02-27T13:43:06.824Z,1302.00
2023-02-27T13:44:06.875Z,1290.00
2023-02-27T13:45:06.918Z,1279.00
2023-02-27T13:46:07.047Z,1290.00
2023-02-27T13:47:07.048Z,1281.00
2023-02-27T13:48:07.075Z,1275.00
2023-02-27T13:49:07.982Z,1266.00
2023-02-27T13:50:07.175Z,1283.00
2023-02-27T13:51:07.213Z,1265.00
2023-02-27T13:52:07.282Z,1277.00
2023-02-27T13:53:07.998Z,1270.00
2023-02-27T13:54:07.365Z,1280.00
2023-02-27T13:55:12.241Z,1279.00
2023-02-27T13:56:08.495Z,1279.00
2023-02-27T13:57:07.423Z,1271.00
2023-02-27T13:58:07.446Z,1264.00
2023-02-27T13:59:07.451Z,1275.00
2023-02-27T14:00:07.453Z,1252.00
2023-02-27T14:01:07.471Z,1257.00
2023-02-27T17:13:15.951Z,932.00
2023-02-27T17:14:16.017Z,930.00
2023-02-27T17:15:16.058Z,932.00
2023-02-27T17:16:16.221Z,937.00
2023-02-27T17:17:16.170Z,928.00
2023-02-27T17:18:16.218Z,933.00
2023-02-27T17:19:16.299Z,927.00
2023-02-27T17:20:16.353Z,935.00
2023-02-27T17:21:16.402Z,926.00
2023-02-27T17:22:16.441Z,928.00
2023-02-27T17:23:16.493Z,925.00
2023-02-27T17:24:16.556Z,930.00
2023-02-27T17:25:16.626Z,928.00
2023-02-27T17:26:16.678Z,927.00
2023-02-27T17:27:16.734Z,923.00
2023-02-27T20:11:26.329Z,675.00
2023-02-27T20:12:25.981Z,670.00
2023-02-27T20:13:26.103Z,674.00
2023-02-27T20:14:26.095Z,671.00
2023-02-27T20:15:26.164Z,666.00
2023-02-27T20:16:26.661Z,669.00
2023-02-27T20:17:26.318Z,664.00
2023-02-27T20:18:26.371Z,662.00
2023-02-27T20:19:26.415Z,662.00
2023-02-27T20:21:26.904Z,661.00
2023-02-27T20:22:26.612Z,660.00
2023-02-27T20:23:26.744Z,660.00
2023-02-27T20:24:26.710Z,659.00
2023-02-27T21:04:29.254Z,646.00
2023-02-27T22:52:35.962Z,600.00
2023-02-27T22:53:36.014Z,594.00
2023-02-27T22:54:36.078Z,594.00
2023-02-27T22:55:36.142Z,599.00
2023-02-27T22:56:36.212Z,602.00
2023-02-27T22:57:36.278Z,594.00
2023-02-27T22:58:36.420Z,593.00
2023-02-27T22:59:36.419Z,595.00
2023-02-27T23:00:36.470Z,598.00
2023-02-27T23:01:36.553Z,595.00
2023-02-27T23:02:36.587Z,596.00
2023-02-27T23:03:36.690Z,598.00
2023-02-27T23:04:36.716Z,592.00
2023-02-27T23:05:36.781Z,594.00
2023-02-27T23:07:36.899Z,595.00
2023-02-27T23:08:36.975Z,594.00
2023-02-27T23:09:37.038Z,594.00
2023-02-27T23:18:37.612Z,589.00
2023-02-27T23:52:39.848Z,578.00
2023-02-27T23:53:39.909Z,582.00
2023-02-27T23:54:39.976Z,583.00
2023-02-27T23:55:40.040Z,579.00
2023-02-27T23:56:40.105Z,576.00
2023-02-27T23:57:40.251Z,580.00
2023-02-27T23:58:40.239Z,573.00
2023-02-27T23:59:40.306Z,579.00
